sensor_id;sensor_type;location;lat;lon;timestamp;P1;durP1;ratioP1;P2;durP2;ratioP2
22628;SDS011;11481;53.694;9.910;2022-08-19T00:01:32;13.00;;;6.35;;
22628;SDS011;11481;53.694;9.910;2022-08-19T00:04:04;13.38;;;6.22;;
22628;SDS011;11481;53.694;9.910;2022-08-19T00:06:33;18.48;;;6.60;;
22628;SDS011;11481;53.694;9.910;2022-08-19T00:09:02;18.63;;;7.10;;
22628;SDS011;11481;53.694;9.910;2022-08-19T00:11:31;17.55;;;7.68;;
22628;SDS011;11481;53.694;9.910;2022-08-19T00:14:00;15.63;;;7.65;;
22628;SDS011;11481;53.694;9.910;2022-08-19T00:16:27;15.98;;;7.72;;
22628;SDS011;11481;53.694;9.910;2022-08-19T00:18:54;13.20;;;6.78;;
22628;SDS011;11481;53.694;9.910;2022-08-19T00:21:24;14.23;;;7.10;;
22628;SDS011;11481;53.694;9.910;2022-08-19T00:23:53;15.65;;;7.40;;
22628;SDS011;11481;53.694;9.910;2022-08-19T00:26:24;13.75;;;6.45;;
22628;SDS011;11481;53.694;9.910;2022-08-19T00:28:53;16.33;;;7.43;;
22628;SDS011;11481;53.694;9.910;2022-08-19T00:31:20;17.27;;;7.00;;
22628;SDS011;11481;53.694;9.910;2022-08-19T00:33:47;26.67;;;8.23;;
22628;SDS011;11481;53.694;9.910;2022-08-19T00:36:16;14.70;;;7.80;;
22628;SDS011;11481;53.694;9.910;2022-08-19T00:38:43;15.60;;;7.68;;
22628;SDS011;11481;53.694;9.910;2022-08-19T00:41:14;14.63;;;7.03;;
22628;SDS011;11481;53.694;9.910;2022-08-19T00:43:56;14.35;;;7.55;;
22628;SDS011;11481;53.694;9.910;2022-08-19T00:46:32;14.73;;;7.45;;
22628;SDS011;11481;53.694;9.910;2022-08-19T00:49:02;16.63;;;7.30;;
22628;SDS011;11481;53.694;9.910;2022-08-19T00:51:35;22.33;;;8.23;;
22628;SDS011;11481;53.694;9.910;2022-08-19T00:54:03;17.80;;;7.82;;
22628;SDS011;11481;53.694;9.910;2022-08-19T00:56:30;24.42;;;9.07;;
22628;SDS011;11481;53.694;9.910;2022-08-19T00:58:59;21.27;;;9.00;;
22628;SDS011;11481;53.694;9.910;2022-08-19T01:01:28;14.90;;;7.32;;
22628;SDS011;11481;53.694;9.910;2022-08-19T01:03:54;14.65;;;7.40;;
22628;SDS011;11481;53.694;9.910;2022-08-19T01:06:24;15.35;;;6.95;;
22628;SDS011;11481;53.694;9.910;2022-08-19T01:08:53;17.52;;;8.52;;
22628;SDS011;11481;53.694;9.910;2022-08-19T01:11:21;21.98;;;8.27;;
22628;SDS011;11481;53.694;9.910;2022-08-19T01:13:47;20.27;;;7.65;;
22628;SDS011;11481;53.694;9.910;2022-08-19T01:16:16;19.55;;;8.60;;
22628;SDS011;11481;53.694;9.910;2022-08-19T01:18:45;18.83;;;7.35;;
22628;SDS011;11481;53.694;9.910;2022-08-19T01:21:20;17.00;;;7.50;;
22628;SDS011;11481;53.694;9.910;2022-08-19T01:23:54;18.30;;;8.93;;
22628;SDS011;11481;53.694;9.910;2022-08-19T01:26:22;21.25;;;8.65;;
22628;SDS011;11481;53.694;9.910;2022-08-19T01:28:52;16.35;;;7.45;;
22628;SDS011;11481;53.694;9.910;2022-08-19T01:31:26;18.50;;;8.45;;
22628;SDS011;11481;53.694;9.910;2022-08-19T01:33:58;24.23;;;8.68;;
22628;SDS011;11481;53.694;9.910;2022-08-19T01:36:29;19.17;;;8.43;;
22628;SDS011;11481;53.694;9.910;2022-08-19T01:38:59;22.33;;;9.02;;
22628;SDS011;11481;53.694;9.910;2022-08-19T01:41:28;25.98;;;8.48;;
22628;SDS011;11481;53.694;9.910;2022-08-19T01:43:55;21.08;;;8.63;;
22628;SDS011;11481;53.694;9.910;2022-08-19T01:46:42;26.98;;;8.68;;
22628;SDS011;11481;53.694;9.910;2022-08-19T01:49:10;18.98;;;8.27;;
22628;SDS011;11481;53.694;9.910;2022-08-19T01:51:37;29.30;;;10.05;;
22628;SDS011;11481;53.694;9.910;2022-08-19T01:54:06;21.67;;;8.35;;
22628;SDS011;11481;53.694;9.910;2022-08-19T01:56:34;23.08;;;8.32;;
22628;SDS011;11481;53.694;9.910;2022-08-19T01:59:02;25.50;;;9.43;;
22628;SDS011;11481;53.694;9.910;2022-08-19T02:01:33;25.13;;;9.20;;
22628;SDS011;11481;53.694;9.910;2022-08-19T02:04:01;33.17;;;9.68;;
22628;SDS011;11481;53.694;9.910;2022-08-19T02:06:28;37.35;;;10.70;;
22628;SDS011;11481;53.694;9.910;2022-08-19T02:08:55;22.90;;;9.52;;
22628;SDS011;11481;53.694;9.910;2022-08-19T02:11:27;24.80;;;10.18;;
22628;SDS011;11481;53.694;9.910;2022-08-19T02:14:00;33.20;;;10.23;;
22628;SDS011;11481;53.694;9.910;2022-08-19T02:16:28;24.80;;;10.07;;
22628;SDS011;11481;53.694;9.910;2022-08-19T02:18:56;27.02;;;10.00;;
22628;SDS011;11481;53.694;9.910;2022-08-19T02:21:26;27.10;;;9.43;;
22628;SDS011;11481;53.694;9.910;2022-08-19T02:23:55;28.75;;;8.73;;
22628;SDS011;11481;53.694;9.910;2022-08-19T02:26:22;27.83;;;10.23;;
22628;SDS011;11481;53.694;9.910;2022-08-19T02:28:49;33.80;;;10.18;;
22628;SDS011;11481;53.694;9.910;2022-08-19T02:31:17;27.40;;;11.40;;
22628;SDS011;11481;53.694;9.910;2022-08-19T02:33:46;23.92;;;8.60;;
22628;SDS011;11481;53.694;9.910;2022-08-19T02:36:14;27.02;;;9.32;;
22628;SDS011;11481;53.694;9.910;2022-08-19T02:38:46;31.80;;;10.07;;
22628;SDS011;11481;53.694;9.910;2022-08-19T02:41:21;29.10;;;10.45;;
22628;SDS011;11481;53.694;9.910;2022-08-19T02:43:53;26.98;;;10.75;;
22628;SDS011;11481;53.694;9.910;2022-08-19T02:46:41;24.17;;;10.27;;
22628;SDS011;11481;53.694;9.910;2022-08-19T02:49:09;25.13;;;10.02;;
22628;SDS011;11481;53.694;9.910;2022-08-19T02:51:36;22.65;;;9.20;;
22628;SDS011;11481;53.694;9.910;2022-08-19T02:54:05;27.52;;;9.45;;
22628;SDS011;11481;53.694;9.910;2022-08-19T02:56:34;22.05;;;8.93;;
22628;SDS011;11481;53.694;9.910;2022-08-19T02:59:03;21.10;;;8.95;;
22628;SDS011;11481;53.694;9.910;2022-08-19T03:01:36;27.45;;;8.98;;
22628;SDS011;11481;53.694;9.910;2022-08-19T03:04:05;20.10;;;8.30;;
22628;SDS011;11481;53.694;9.910;2022-08-19T03:06:36;23.17;;;8.57;;
22628;SDS011;11481;53.694;9.910;2022-08-19T03:09:04;25.10;;;9.82;;
22628;SDS011;11481;53.694;9.910;2022-08-19T03:11:31;24.10;;;8.68;;
22628;SDS011;11481;53.694;9.910;2022-08-19T03:13:59;21.08;;;9.55;;
22628;SDS011;11481;53.694;9.910;2022-08-19T03:16:27;21.63;;;8.45;;
22628;SDS011;11481;53.694;9.910;2022-08-19T03:18:59;23.08;;;7.93;;
22628;SDS011;11481;53.694;9.910;2022-08-19T03:21:28;27.67;;;7.70;;
22628;SDS011;11481;53.694;9.910;2022-08-19T03:23:57;20.80;;;7.75;;
22628;SDS011;11481;53.694;9.910;2022-08-19T03:26:26;19.63;;;8.10;;
22628;SDS011;11481;53.694;9.910;2022-08-19T03:28:53;25.15;;;8.57;;
22628;SDS011;11481;53.694;9.910;2022-08-19T03:31:24;20.40;;;7.70;;
22628;SDS011;11481;53.694;9.910;2022-08-19T03:34:14;17.30;;;8.40;;
22628;SDS011;11481;53.694;9.910;2022-08-19T03:36:45;20.67;;;8.25;;
22628;SDS011;11481;53.694;9.910;2022-08-19T03:39:12;19.23;;;8.50;;
22628;SDS011;11481;53.694;9.910;2022-08-19T03:41:41;27.35;;;9.85;;
22628;SDS011;11481;53.694;9.910;2022-08-19T03:44:15;21.15;;;9.38;;
22628;SDS011;11481;53.694;9.910;2022-08-19T03:46:45;21.40;;;8.52;;
22628;SDS011;11481;53.694;9.910;2022-08-19T03:49:13;24.45;;;9.35;;
22628;SDS011;11481;53.694;9.910;2022-08-19T03:51:43;24.52;;;8.60;;
22628;SDS011;11481;53.694;9.910;2022-08-19T03:54:13;23.88;;;8.35;;
22628;SDS011;11481;53.694;9.910;2022-08-19T03:56:42;21.70;;;9.52;;
22628;SDS011;11481;53.694;9.910;2022-08-19T03:59:12;21.13;;;8.55;;
22628;SDS011;11481;53.694;9.910;2022-08-19T04:01:42;23.30;;;10.63;;
22628;SDS011;11481;53.694;9.910;2022-08-19T04:04:10;25.73;;;10.02;;
22628;SDS011;11481;53.694;9.910;2022-08-19T04:06:37;29.77;;;10.82;;
22628;SDS011;11481;53.694;9.910;2022-08-19T04:09:06;32.17;;;11.13;;
22628;SDS011;11481;53.694;9.910;2022-08-19T04:11:37;26.85;;;10.10;;
22628;SDS011;11481;53.694;9.910;2022-08-19T04:14:14;24.27;;;10.32;;
22628;SDS011;11481;53.694;9.910;2022-08-19T04:16:46;27.40;;;9.77;;
22628;SDS011;11481;53.694;9.910;2022-08-19T04:19:14;27.80;;;10.35;;
22628;SDS011;11481;53.694;9.910;2022-08-19T04:21:43;24.55;;;9.23;;
22628;SDS011;11481;53.694;9.910;2022-08-19T04:24:11;30.75;;;11.10;;
22628;SDS011;11481;53.694;9.910;2022-08-19T04:26:39;24.48;;;10.65;;
22628;SDS011;11481;53.694;9.910;2022-08-19T04:29:08;29.38;;;10.82;;
22628;SDS011;11481;53.694;9.910;2022-08-19T04:31:39;26.70;;;9.50;;
22628;SDS011;11481;53.694;9.910;2022-08-19T04:34:08;27.05;;;9.65;;
22628;SDS011;11481;53.694;9.910;2022-08-19T04:36:37;22.77;;;8.80;;
22628;SDS011;11481;53.694;9.910;2022-08-19T04:39:11;25.52;;;9.65;;
22628;SDS011;11481;53.694;9.910;2022-08-19T04:41:40;32.75;;;9.68;;
22628;SDS011;11481;53.694;9.910;2022-08-19T04:44:25;30.63;;;10.48;;
22628;SDS011;11481;53.694;9.910;2022-08-19T04:46:52;22.33;;;8.93;;
22628;SDS011;11481;53.694;9.910;2022-08-19T04:49:20;24.77;;;10.50;;
22628;SDS011;11481;53.694;9.910;2022-08-19T04:51:48;28.38;;;10.25;;
22628;SDS011;11481;53.694;9.910;2022-08-19T04:54:17;28.40;;;9.85;;
22628;SDS011;11481;53.694;9.910;2022-08-19T04:57:04;22.98;;;9.23;;
22628;SDS011;11481;53.694;9.910;2022-08-19T04:59:33;23.20;;;9.95;;
22628;SDS011;11481;53.694;9.910;2022-08-19T05:02:01;28.23;;;10.48;;
22628;SDS011;11481;53.694;9.910;2022-08-19T05:04:28;40.10;;;11.70;;
22628;SDS011;11481;53.694;9.910;2022-08-19T05:06:57;30.30;;;11.57;;
22628;SDS011;11481;53.694;9.910;2022-08-19T05:09:26;30.67;;;12.15;;
22628;SDS011;11481;53.694;9.910;2022-08-19T05:12:13;30.85;;;12.07;;
22628;SDS011;11481;53.694;9.910;2022-08-19T05:14:39;31.45;;;10.48;;
22628;SDS011;11481;53.694;9.910;2022-08-19T05:17:06;27.90;;;10.70;;
22628;SDS011;11481;53.694;9.910;2022-08-19T05:19:53;38.78;;;13.25;;
22628;SDS011;11481;53.694;9.910;2022-08-19T05:22:39;32.10;;;12.15;;
22628;SDS011;11481;53.694;9.910;2022-08-19T05:25:08;30.92;;;11.90;;
22628;SDS011;11481;53.694;9.910;2022-08-19T05:27:39;39.75;;;11.40;;
22628;SDS011;11481;53.694;9.910;2022-08-19T05:30:08;29.80;;;12.30;;
22628;SDS011;11481;53.694;9.910;2022-08-19T05:32:36;32.50;;;12.52;;
22628;SDS011;11481;53.694;9.910;2022-08-19T05:35:04;27.15;;;11.75;;
22628;SDS011;11481;53.694;9.910;2022-08-19T05:37:31;30.80;;;12.23;;
22628;SDS011;11481;53.694;9.910;2022-08-19T05:39:58;35.83;;;12.05;;
22628;SDS011;11481;53.694;9.910;2022-08-19T05:42:25;31.27;;;11.48;;
22628;SDS011;11481;53.694;9.910;2022-08-19T05:44:52;32.28;;;11.30;;
22628;SDS011;11481;53.694;9.910;2022-08-19T05:47:19;32.65;;;12.20;;
22628;SDS011;11481;53.694;9.910;2022-08-19T05:49:47;32.65;;;11.90;;
22628;SDS011;11481;53.694;9.910;2022-08-19T05:52:15;27.23;;;11.85;;
22628;SDS011;11481;53.694;9.910;2022-08-19T05:54:44;31.13;;;11.50;;
22628;SDS011;11481;53.694;9.910;2022-08-19T05:57:16;33.97;;;11.82;;
22628;SDS011;11481;53.694;9.910;2022-08-19T05:59:44;37.15;;;12.45;;
22628;SDS011;11481;53.694;9.910;2022-08-19T06:02:14;30.23;;;12.20;;
22628;SDS011;11481;53.694;9.910;2022-08-19T06:04:40;31.77;;;11.90;;
22628;SDS011;11481;53.694;9.910;2022-08-19T06:07:10;42.63;;;12.73;;
22628;SDS011;11481;53.694;9.910;2022-08-19T06:09:38;39.13;;;13.23;;
22628;SDS011;11481;53.694;9.910;2022-08-19T06:12:06;30.98;;;11.52;;
22628;SDS011;11481;53.694;9.910;2022-08-19T06:14:34;35.65;;;13.25;;
22628;SDS011;11481;53.694;9.910;2022-08-19T06:17:05;43.15;;;14.10;;
22628;SDS011;11481;53.694;9.910;2022-08-19T06:19:32;28.30;;;11.98;;
22628;SDS011;11481;53.694;9.910;2022-08-19T06:22:05;39.30;;;12.27;;
22628;SDS011;11481;53.694;9.910;2022-08-19T06:24:32;31.30;;;12.27;;
22628;SDS011;11481;53.694;9.910;2022-08-19T06:26:59;36.25;;;11.80;;
22628;SDS011;11481;53.694;9.910;2022-08-19T06:29:27;35.50;;;12.43;;
22628;SDS011;11481;53.694;9.910;2022-08-19T06:31:56;34.35;;;11.60;;
22628;SDS011;11481;53.694;9.910;2022-08-19T06:34:24;34.58;;;11.95;;
22628;SDS011;11481;53.694;9.910;2022-08-19T06:36:54;36.08;;;12.13;;
22628;SDS011;11481;53.694;9.910;2022-08-19T06:39:25;33.10;;;12.13;;
22628;SDS011;11481;53.694;9.910;2022-08-19T06:41:55;28.95;;;11.60;;
22628;SDS011;11481;53.694;9.910;2022-08-19T06:44:25;26.70;;;10.57;;
22628;SDS011;11481;53.694;9.910;2022-08-19T06:46:57;30.33;;;12.13;;
22628;SDS011;11481;53.694;9.910;2022-08-19T06:49:23;44.08;;;13.48;;
22628;SDS011;11481;53.694;9.910;2022-08-19T06:51:57;29.00;;;11.10;;
22628;SDS011;11481;53.694;9.910;2022-08-19T06:54:27;26.27;;;9.82;;
22628;SDS011;11481;53.694;9.910;2022-08-19T06:56:59;27.92;;;11.18;;
22628;SDS011;11481;53.694;9.910;2022-08-19T06:59:30;27.35;;;12.13;;
22628;SDS011;11481;53.694;9.910;2022-08-19T07:02:00;32.85;;;11.48;;
22628;SDS011;11481;53.694;9.910;2022-08-19T07:04:32;30.77;;;10.88;;
22628;SDS011;11481;53.694;9.910;2022-08-19T07:07:06;30.48;;;11.55;;
22628;SDS011;11481;53.694;9.910;2022-08-19T07:09:46;30.70;;;10.63;;
22628;SDS011;11481;53.694;9.910;2022-08-19T07:12:25;31.75;;;10.65;;
22628;SDS011;11481;53.694;9.910;2022-08-19T07:15:00;28.25;;;10.95;;
22628;SDS011;11481;53.694;9.910;2022-08-19T07:17:28;28.90;;;11.43;;
22628;SDS011;11481;53.694;9.910;2022-08-19T07:19:56;26.50;;;9.30;;
22628;SDS011;11481;53.694;9.910;2022-08-19T07:22:30;22.40;;;9.85;;
22628;SDS011;11481;53.694;9.910;2022-08-19T07:24:57;30.77;;;10.43;;
22628;SDS011;11481;53.694;9.910;2022-08-19T07:27:24;32.20;;;10.85;;
22628;SDS011;11481;53.694;9.910;2022-08-19T07:29:52;30.60;;;9.82;;
22628;SDS011;11481;53.694;9.910;2022-08-19T07:32:22;33.90;;;10.90;;
22628;SDS011;11481;53.694;9.910;2022-08-19T07:34:52;29.23;;;10.02;;
22628;SDS011;11481;53.694;9.910;2022-08-19T07:37:19;23.67;;;10.02;;
22628;SDS011;11481;53.694;9.910;2022-08-19T07:39:45;34.42;;;9.18;;
22628;SDS011;11481;53.694;9.910;2022-08-19T07:42:14;25.58;;;8.32;;
22628;SDS011;11481;53.694;9.910;2022-08-19T07:44:41;17.15;;;7.60;;
22628;SDS011;11481;53.694;9.910;2022-08-19T07:47:15;24.92;;;8.82;;
22628;SDS011;11481;53.694;9.910;2022-08-19T07:50:03;18.50;;;8.35;;
22628;SDS011;11481;53.694;9.910;2022-08-19T07:52:33;18.88;;;7.60;;
22628;SDS011;11481;53.694;9.910;2022-08-19T07:55:00;20.25;;;9.23;;
22628;SDS011;11481;53.694;9.910;2022-08-19T07:57:29;25.00;;;9.48;;
22628;SDS011;11481;53.694;9.910;2022-08-19T07:59:56;27.67;;;8.93;;
22628;SDS011;11481;53.694;9.910;2022-08-19T08:02:23;23.95;;;8.82;;
22628;SDS011;11481;53.694;9.910;2022-08-19T08:04:50;24.30;;;9.00;;
22628;SDS011;11481;53.694;9.910;2022-08-19T08:07:35;18.45;;;7.97;;
22628;SDS011;11481;53.694;9.910;2022-08-19T08:10:20;21.13;;;7.32;;
22628;SDS011;11481;53.694;9.910;2022-08-19T08:12:50;18.70;;;9.40;;
22628;SDS011;11481;53.694;9.910;2022-08-19T08:15:37;16.35;;;7.47;;
22628;SDS011;11481;53.694;9.910;2022-08-19T08:18:09;17.05;;;7.00;;
22628;SDS011;11481;53.694;9.910;2022-08-19T08:20:37;17.75;;;7.45;;
22628;SDS011;11481;53.694;9.910;2022-08-19T08:23:03;19.60;;;8.18;;
22628;SDS011;11481;53.694;9.910;2022-08-19T08:25:49;23.20;;;8.27;;
22628;SDS011;11481;53.694;9.910;2022-08-19T08:28:19;16.13;;;7.75;;
22628;SDS011;11481;53.694;9.910;2022-08-19T08:30:46;19.15;;;7.03;;
22628;SDS011;11481;53.694;9.910;2022-08-19T08:33:19;19.88;;;8.43;;
22628;SDS011;11481;53.694;9.910;2022-08-19T08:35:59;14.65;;;6.60;;
22628;SDS011;11481;53.694;9.910;2022-08-19T08:38:35;18.23;;;7.68;;
22628;SDS011;11481;53.694;9.910;2022-08-19T08:41:21;15.43;;;7.22;;
22628;SDS011;11481;53.694;9.910;2022-08-19T08:44:00;16.70;;;6.60;;
22628;SDS011;11481;53.694;9.910;2022-08-19T08:46:37;14.05;;;6.50;;
22628;SDS011;11481;53.694;9.910;2022-08-19T08:49:33;22.30;;;8.02;;
22628;SDS011;11481;53.694;9.910;2022-08-19T08:52:26;22.80;;;7.03;;
22628;SDS011;11481;53.694;9.910;2022-08-19T08:55:05;21.00;;;7.88;;
22628;SDS011;11481;53.694;9.910;2022-08-19T09:02:53;18.45;;;7.22;;
22628;SDS011;11481;53.694;9.910;2022-08-19T09:05:21;19.10;;;7.75;;
22628;SDS011;11481;53.694;9.910;2022-08-19T09:07:59;15.82;;;7.00;;
22628;SDS011;11481;53.694;9.910;2022-08-19T09:10:34;22.33;;;8.05;;
22628;SDS011;11481;53.694;9.910;2022-08-19T09:13:20;24.10;;;8.10;;
22628;SDS011;11481;53.694;9.910;2022-08-19T09:16:12;21.85;;;9.15;;
22628;SDS011;11481;53.694;9.910;2022-08-19T09:18:50;18.25;;;8.40;;
22628;SDS011;11481;53.694;9.910;2022-08-19T09:21:21;19.05;;;7.95;;
22628;SDS011;11481;53.694;9.910;2022-08-19T09:23:58;16.77;;;7.32;;
22628;SDS011;11481;53.694;9.910;2022-08-19T09:26:25;19.60;;;7.80;;
22628;SDS011;11481;53.694;9.910;2022-08-19T09:29:12;21.58;;;7.93;;
22628;SDS011;11481;53.694;9.910;2022-08-19T09:31:39;19.35;;;8.43;;
22628;SDS011;11481;53.694;9.910;2022-08-19T09:34:06;16.08;;;7.25;;
22628;SDS011;11481;53.694;9.910;2022-08-19T09:36:46;21.70;;;8.65;;
22628;SDS011;11481;53.694;9.910;2022-08-19T09:39:20;16.55;;;8.57;;
22628;SDS011;11481;53.694;9.910;2022-08-19T09:41:47;22.45;;;7.60;;
22628;SDS011;11481;53.694;9.910;2022-08-19T09:44:15;20.13;;;8.10;;
22628;SDS011;11481;53.694;9.910;2022-08-19T09:46:44;23.20;;;7.97;;
22628;SDS011;11481;53.694;9.910;2022-08-19T09:49:13;18.90;;;8.60;;
22628;SDS011;11481;53.694;9.910;2022-08-19T09:51:40;19.38;;;8.38;;
22628;SDS011;11481;53.694;9.910;2022-08-19T09:54:07;20.45;;;8.00;;
22628;SDS011;11481;53.694;9.910;2022-08-19T09:56:36;17.92;;;8.20;;
22628;SDS011;11481;53.694;9.910;2022-08-19T09:59:07;15.50;;;7.55;;
22628;SDS011;11481;53.694;9.910;2022-08-19T10:01:35;20.42;;;7.43;;
22628;SDS011;11481;53.694;9.910;2022-08-19T10:04:02;15.02;;;6.90;;
22628;SDS011;11481;53.694;9.910;2022-08-19T10:06:45;22.00;;;8.90;;
22628;SDS011;11481;53.694;9.910;2022-08-19T10:09:17;21.52;;;8.40;;
22628;SDS011;11481;53.694;9.910;2022-08-19T10:12:00;18.17;;;8.30;;
22628;SDS011;11481;53.694;9.910;2022-08-19T10:14:28;19.55;;;8.13;;
22628;SDS011;11481;53.694;9.910;2022-08-19T10:16:54;19.10;;;7.63;;
22628;SDS011;11481;53.694;9.910;2022-08-19T10:19:24;18.63;;;7.85;;
22628;SDS011;11481;53.694;9.910;2022-08-19T10:21:52;18.98;;;8.80;;
22628;SDS011;11481;53.694;9.910;2022-08-19T10:24:25;19.13;;;6.93;;
22628;SDS011;11481;53.694;9.910;2022-08-19T10:26:53;20.08;;;7.88;;
22628;SDS011;11481;53.694;9.910;2022-08-19T10:29:25;20.85;;;8.63;;
22628;SDS011;11481;53.694;9.910;2022-08-19T10:31:58;19.30;;;8.63;;
22628;SDS011;11481;53.694;9.910;2022-08-19T10:34:28;20.10;;;9.10;;
22628;SDS011;11481;53.694;9.910;2022-08-19T10:36:56;16.23;;;8.25;;
22628;SDS011;11481;53.694;9.910;2022-08-19T10:39:27;19.63;;;7.50;;
22628;SDS011;11481;53.694;9.910;2022-08-19T10:41:56;16.27;;;6.65;;
22628;SDS011;11481;53.694;9.910;2022-08-19T10:44:23;18.58;;;8.13;;
22628;SDS011;11481;53.694;9.910;2022-08-19T10:46:57;19.23;;;8.77;;
22628;SDS011;11481;53.694;9.910;2022-08-19T10:49:25;15.43;;;6.68;;
22628;SDS011;11481;53.694;9.910;2022-08-19T10:51:53;20.15;;;8.55;;
22628;SDS011;11481;53.694;9.910;2022-08-19T10:54:45;17.60;;;7.18;;
22628;SDS011;11481;53.694;9.910;2022-08-19T10:57:33;17.85;;;6.97;;
22628;SDS011;11481;53.694;9.910;2022-08-19T11:00:21;17.42;;;7.43;;
22628;SDS011;11481;53.694;9.910;2022-08-19T11:02:49;17.30;;;7.70;;
22628;SDS011;11481;53.694;9.910;2022-08-19T11:05:15;16.92;;;7.93;;
22628;SDS011;11481;53.694;9.910;2022-08-19T11:07:44;12.40;;;6.75;;
22628;SDS011;11481;53.694;9.910;2022-08-19T11:10:12;16.90;;;8.25;;
22628;SDS011;11481;53.694;9.910;2022-08-19T11:12:46;15.35;;;7.72;;
22628;SDS011;11481;53.694;9.910;2022-08-19T11:15:13;17.50;;;7.60;;
22628;SDS011;11481;53.694;9.910;2022-08-19T11:17:40;15.63;;;7.45;;
22628;SDS011;11481;53.694;9.910;2022-08-19T11:20:12;18.88;;;8.02;;
22628;SDS011;11481;53.694;9.910;2022-08-19T11:22:40;18.83;;;6.88;;
22628;SDS011;11481;53.694;9.910;2022-08-19T11:25:09;17.35;;;7.50;;
22628;SDS011;11481;53.694;9.910;2022-08-19T11:27:37;12.90;;;6.95;;
22628;SDS011;11481;53.694;9.910;2022-08-19T11:30:08;17.02;;;7.43;;
22628;SDS011;11481;53.694;9.910;2022-08-19T11:32:38;18.17;;;6.85;;
22628;SDS011;11481;53.694;9.910;2022-08-19T11:35:14;16.13;;;7.25;;
22628;SDS011;11481;53.694;9.910;2022-08-19T11:37:41;16.98;;;7.72;;
22628;SDS011;11481;53.694;9.910;2022-08-19T11:40:08;14.77;;;6.68;;
22628;SDS011;11481;53.694;9.910;2022-08-19T11:42:36;42.58;;;7.38;;
22628;SDS011;11481;53.694;9.910;2022-08-19T11:45:22;13.23;;;6.20;;
22628;SDS011;11481;53.694;9.910;2022-08-19T11:47:50;14.50;;;6.95;;
22628;SDS011;11481;53.694;9.910;2022-08-19T11:50:16;13.98;;;7.32;;
22628;SDS011;11481;53.694;9.910;2022-08-19T11:52:44;14.32;;;6.57;;
22628;SDS011;11481;53.694;9.910;2022-08-19T11:55:14;16.60;;;7.45;;
22628;SDS011;11481;53.694;9.910;2022-08-19T11:57:41;15.52;;;7.30;;
22628;SDS011;11481;53.694;9.910;2022-08-19T12:00:09;11.68;;;6.00;;
22628;SDS011;11481;53.694;9.910;2022-08-19T12:02:38;15.88;;;6.82;;
22628;SDS011;11481;53.694;9.910;2022-08-19T12:05:05;13.00;;;6.43;;
22628;SDS011;11481;53.694;9.910;2022-08-19T12:07:37;15.50;;;7.38;;
22628;SDS011;11481;53.694;9.910;2022-08-19T12:10:05;13.88;;;6.68;;
22628;SDS011;11481;53.694;9.910;2022-08-19T12:12:33;14.55;;;6.75;;
22628;SDS011;11481;53.694;9.910;2022-08-19T12:15:00;14.15;;;6.53;;
22628;SDS011;11481;53.694;9.910;2022-08-19T12:17:27;13.10;;;6.55;;
22628;SDS011;11481;53.694;9.910;2022-08-19T12:19:54;15.60;;;8.10;;
22628;SDS011;11481;53.694;9.910;2022-08-19T12:22:21;15.73;;;7.47;;
22628;SDS011;11481;53.694;9.910;2022-08-19T12:24:48;14.10;;;7.20;;
22628;SDS011;11481;53.694;9.910;2022-08-19T12:27:17;15.77;;;7.18;;
22628;SDS011;11481;53.694;9.910;2022-08-19T12:30:01;17.48;;;6.60;;
22628;SDS011;11481;53.694;9.910;2022-08-19T12:32:28;14.32;;;7.40;;
22628;SDS011;11481;53.694;9.910;2022-08-19T12:34:55;14.02;;;6.68;;
22628;SDS011;11481;53.694;9.910;2022-08-19T12:37:22;13.30;;;6.90;;
22628;SDS011;11481;53.694;9.910;2022-08-19T12:39:49;13.20;;;6.72;;
22628;SDS011;11481;53.694;9.910;2022-08-19T12:42:16;13.80;;;6.57;;
22628;SDS011;11481;53.694;9.910;2022-08-19T12:44:44;13.95;;;6.40;;
22628;SDS011;11481;53.694;9.910;2022-08-19T12:47:12;12.40;;;6.05;;
22628;SDS011;11481;53.694;9.910;2022-08-19T12:49:40;13.90;;;6.75;;
22628;SDS011;11481;53.694;9.910;2022-08-19T12:52:19;15.05;;;6.28;;
22628;SDS011;11481;53.694;9.910;2022-08-19T12:54:48;13.13;;;7.20;;
22628;SDS011;11481;53.694;9.910;2022-08-19T12:57:20;14.55;;;7.28;;
22628;SDS011;11481;53.694;9.910;2022-08-19T13:00:09;15.25;;;7.55;;
22628;SDS011;11481;53.694;9.910;2022-08-19T13:02:40;14.88;;;6.10;;
22628;SDS011;11481;53.694;9.910;2022-08-19T13:05:10;14.98;;;6.63;;
22628;SDS011;11481;53.694;9.910;2022-08-19T13:07:42;15.52;;;6.78;;
22628;SDS011;11481;53.694;9.910;2022-08-19T13:10:14;14.30;;;6.50;;
22628;SDS011;11481;53.694;9.910;2022-08-19T13:12:44;14.80;;;6.93;;
22628;SDS011;11481;53.694;9.910;2022-08-19T13:15:11;14.38;;;7.50;;
22628;SDS011;11481;53.694;9.910;2022-08-19T13:17:40;13.05;;;6.53;;
22628;SDS011;11481;53.694;9.910;2022-08-19T13:20:08;13.68;;;7.00;;
22628;SDS011;11481;53.694;9.910;2022-08-19T13:22:36;12.38;;;6.22;;
22628;SDS011;11481;53.694;9.910;2022-08-19T13:25:04;14.18;;;6.50;;
22628;SDS011;11481;53.694;9.910;2022-08-19T13:27:32;15.45;;;6.75;;
22628;SDS011;11481;53.694;9.910;2022-08-19T13:29:59;9.27;;;5.60;;
22628;SDS011;11481;53.694;9.910;2022-08-19T13:32:45;11.30;;;5.55;;
22628;SDS011;11481;53.694;9.910;2022-08-19T13:35:30;12.13;;;5.95;;
22628;SDS011;11481;53.694;9.910;2022-08-19T13:37:57;12.00;;;6.53;;
22628;SDS011;11481;53.694;9.910;2022-08-19T13:40:24;11.38;;;6.45;;
22628;SDS011;11481;53.694;9.910;2022-08-19T13:42:53;10.98;;;5.93;;
22628;SDS011;11481;53.694;9.910;2022-08-19T13:45:22;15.63;;;6.75;;
22628;SDS011;11481;53.694;9.910;2022-08-19T13:47:51;15.27;;;6.70;;
22628;SDS011;11481;53.694;9.910;2022-08-19T13:50:27;14.18;;;8.20;;
22628;SDS011;11481;53.694;9.910;2022-08-19T13:52:55;16.92;;;7.20;;
22628;SDS011;11481;53.694;9.910;2022-08-19T13:55:22;11.57;;;6.68;;
22628;SDS011;11481;53.694;9.910;2022-08-19T13:57:54;16.10;;;7.70;;
22628;SDS011;11481;53.694;9.910;2022-08-19T14:00:22;14.77;;;7.40;;
22628;SDS011;11481;53.694;9.910;2022-08-19T14:02:52;15.75;;;7.55;;
22628;SDS011;11481;53.694;9.910;2022-08-19T14:05:22;14.95;;;7.90;;
22628;SDS011;11481;53.694;9.910;2022-08-19T14:07:50;14.95;;;7.28;;
22628;SDS011;11481;53.694;9.910;2022-08-19T14:10:17;17.88;;;7.63;;
22628;SDS011;11481;53.694;9.910;2022-08-19T14:12:45;14.95;;;8.68;;
22628;SDS011;11481;53.694;9.910;2022-08-19T14:15:12;19.30;;;8.25;;
22628;SDS011;11481;53.694;9.910;2022-08-19T14:17:40;15.60;;;7.88;;
22628;SDS011;11481;53.694;9.910;2022-08-19T14:20:09;14.90;;;7.00;;
22628;SDS011;11481;53.694;9.910;2022-08-19T14:22:43;13.88;;;7.43;;
22628;SDS011;11481;53.694;9.910;2022-08-19T14:25:13;15.32;;;7.95;;
22628;SDS011;11481;53.694;9.910;2022-08-19T14:27:41;14.77;;;7.30;;
22628;SDS011;11481;53.694;9.910;2022-08-19T14:30:09;13.82;;;7.03;;
22628;SDS011;11481;53.694;9.910;2022-08-19T14:32:37;15.07;;;7.88;;
22628;SDS011;11481;53.694;9.910;2022-08-19T14:35:05;16.60;;;7.75;;
22628;SDS011;11481;53.694;9.910;2022-08-19T14:37:33;12.07;;;7.30;;
22628;SDS011;11481;53.694;9.910;2022-08-19T14:40:10;13.75;;;7.65;;
22628;SDS011;11481;53.694;9.910;2022-08-19T14:42:39;14.55;;;7.97;;
22628;SDS011;11481;53.694;9.910;2022-08-19T14:45:07;14.65;;;7.95;;
22628;SDS011;11481;53.694;9.910;2022-08-19T14:47:35;15.43;;;7.88;;
22628;SDS011;11481;53.694;9.910;2022-08-19T14:50:08;12.95;;;6.70;;
22628;SDS011;11481;53.694;9.910;2022-08-19T14:52:43;16.75;;;7.72;;
22628;SDS011;11481;53.694;9.910;2022-08-19T14:55:11;14.10;;;8.15;;
22628;SDS011;11481;53.694;9.910;2022-08-19T14:57:39;13.95;;;7.32;;